Time;durP1;ratioP1;P1;durP2;ratioP2;P2;SDS_P1;SDS_P2;PMS_P1;PMS_P2;Temp;Humidity;BMP_temperature;BMP_pressure;BME280_temperature;BME280_humidity;BME280_pressure;Samples;Min_cycle;Max_cycle;Signal;HPM_P1;HPM_P2
2022/06/17 16:53:26;;;;;;;7.05;1.60;;;32.40;74.40;;;;;;5078647;28;20425;-55
2022/06/17 16:55:53;;;;;;;1.85;1.02;;;31.80;77.50;;;;;;5075559;28;20331;-57
2022/06/17 16:58:20;;;;;;;2.38;1.05;;;31.40;78.50;;;;;;5073590;28;20044;-55
2022/06/17 17:00:46;;;;;;;2.00;1.30;;;30.90;78.40;;;;;;5072598;28;20029;-55
2022/06/17 17:03:13;;;;;;;1.15;1.05;;;30.90;72.30;;;;;;5075737;28;20023;-57
2022/06/17 17:05:38;;;;;;;5.55;1.10;;;31.10;68.20;;;;;;5070439;28;20059;-57
2022/06/17 17:08:04;;;;;;;2.97;1.30;;;30.90;73.20;;;;;;5073902;28;20398;-54
2022/06/17 17:10:30;;;;;;;1.17;1.00;;;30.50;79.90;;;;;;5078815;28;20032;-57
2022/06/17 17:12:57;;;;;;;3.65;1.35;;;30.50;72.90;;;;;;5069308;28;20047;-56
2022/06/17 17:15:23;;;;;;;3.05;1.00;;;30.40;81.60;;;;;;5071018;28;20044;-54
2022/06/17 17:17:49;;;;;;;4.20;1.23;;;30.00;78.10;;;;;;5071339;28;20020;-57
2022/06/17 17:20:18;;;;;;;3.92;1.40;;;30.00;78.30;;;;;;5079875;28;20035;-55
2022/06/17 17:22:48;;;;;;;3.05;0.90;;;29.90;80.70;;;;;;5068378;28;20044;-58
2022/06/17 17:25:23;;;;;;;6.35;1.10;;;30.00;82.00;;;;;;5080533;28;20605;-56
2022/06/17 17:27:49;;;;;;;1.65;1.13;;;30.30;75.60;;;;;;5067460;28;20195;-57
2022/06/17 17:30:15;;;;;;;6.05;2.13;;;30.40;78.70;;;;;;5076087;28;20097;-57
2022/06/17 17:32:42;;;;;;;5.72;1.67;;;30.10;83.90;;;;;;5067893;28;20037;-57
2022/06/17 17:35:08;;;;;;;6.57;1.17;;;30.20;81.60;;;;;;5073072;28;20033;-58
2022/06/17 17:37:34;;;;;;;3.15;1.40;;;30.50;75.10;;;;;;5075401;28;20095;-52
2022/06/17 17:39:59;;;;;;;1.52;1.10;;;30.40;77.20;;;;;;5074567;28;20029;-59
2022/06/17 17:42:25;;;;;;;2.53;1.10;;;30.60;72.60;;;;;;5079749;28;20123;-58
2022/06/17 17:44:51;;;;;;;3.08;1.80;;;30.80;71.40;;;;;;5073434;28;20101;-59
2022/06/17 17:47:24;;;;;;;3.30;1.67;;;30.60;83.60;;;;;;5072105;28;20119;-58
2022/06/17 17:49:51;;;;;;;2.93;1.80;;;30.40;81.60;;;;;;5072569;28;20035;-59
2022/06/17 17:52:19;;;;;;;2.60;1.70;;;30.10;80.90;;;;;;5078716;28;20067;-58
2022/06/17 17:54:44;;;;;;;2.13;0.98;;;30.10;84.70;;;;;;5076642;28;20177;-56
2022/06/17 17:57:10;;;;;;;4.18;1.33;;;30.10;77.10;;;;;;5069487;28;20050;-57
2022/06/17 17:59:36;;;;;;;3.33;1.10;;;30.10;81.50;;;;;;5075269;28;20025;-55
2022/06/17 18:02:01;;;;;;;2.88;1.35;;;30.00;86.60;;;;;;5076994;28;20513;-57
2022/06/17 18:04:28;;;;;;;2.22;1.10;;;29.80;89.00;;;;;;5070020;28;20051;-55
2022/06/17 18:06:53;;;;;;;4.30;1.20;;;29.90;83.50;;;;;;5058672;28;20032;-56
2022/06/17 18:09:20;;;;;;;3.00;1.30;;;29.90;88.30;;;;;;5062842;28;20025;-58
2022/06/17 18:11:50;;;;;;;5.43;1.73;;;29.90;89.00;;;;;;5056878;28;20025;-57
2022/06/17 18:14:18;;;;;;;3.53;2.00;;;29.50;89.30;;;;;;5056956;28;20040;-57
2022/06/17 18:16:43;;;;;;;5.20;2.30;;;29.10;89.90;;;;;;5049885;28;20523;-54
2022/06/17 18:19:09;;;;;;;8.77;3.67;;;29.00;90.00;;;;;;5056419;28;20028;-56
2022/06/17 18:21:37;;;;;;;4.03;2.17;;;28.90;90.90;;;;;;5056004;28;21587;-57
2022/06/17 18:24:04;;;;;;;3.75;2.17;;;28.80;92.30;;;;;;5044593;28;20044;-57
2022/06/17 18:26:35;;;;;;;12.95;5.97;;;28.80;93.10;;;;;;5048147;28;20029;-53
2022/06/17 18:29:01;;;;;;;4.88;2.22;;;28.60;94.60;;;;;;5048381;28;20024;-57
2022/06/17 18:31:28;;;;;;;4.75;1.65;;;28.70;94.20;;;;;;5056897;28;20036;-57
2022/06/17 18:33:54;;;;;;;3.00;1.80;;;28.80;95.00;;;;;;5054737;28;20840;-60
2022/06/17 18:36:20;;;;;;;3.65;2.10;;;28.80;96.90;;;;;;5064328;28;20037;-57
2022/06/17 18:38:46;;;;;;;53.28;38.25;;;28.80;98.00;;;;;;5051378;28;20029;-58
2022/06/17 18:43:59;;;;;;;562.58;364.90;;;29.60;99.20;;;;;;5053226;28;20032;-59
2022/06/17 18:46:27;;;;;;;36.95;17.98;;;30.10;98.60;;;;;;5052842;28;20926;-59
2022/06/17 18:48:54;;;;;;;228.10;129.88;;;30.40;97.00;;;;;;5055233;28;20494;-59
2022/06/17 18:51:20;;;;;;;13.73;8.25;;;30.40;96.90;;;;;;5049075;28;20139;-60
2022/06/17 18:53:46;;;;;;;215.73;130.85;;;30.50;96.60;;;;;;5055004;28;20460;-60
2022/06/17 18:56:12;;;;;;;13.55;7.75;;;30.30;97.30;;;;;;5052716;28;20047;-58
2022/06/17 18:58:37;;;;;;;3.58;1.70;;;30.30;97.50;;;;;;5050966;28;20055;-60
2022/06/17 19:01:08;;;;;;;3.53;1.63;;;29.10;98.90;;;;;;5054097;28;20467;-57
2022/06/17 19:03:36;;;;;;;5.07;2.38;;;28.40;99.90;;;;;;5048051;28;20108;-56
2022/06/17 19:06:02;;;;;;;6.47;2.40;;;28.00;99.90;;;;;;5059926;28;20092;-59
2022/06/17 19:19:34;;;;;;;8.43;2.05;;;26.70;99.90;;;;;;5050355;28;20043;-57
2022/06/17 19:22:01;;;;;;;79.38;58.75;;;26.50;99.90;;;;;;5060262;28;20546;-57
2022/06/17 19:24:27;;;;;;;35.10;23.95;;;26.30;99.90;;;;;;5062422;28;20037;-56
2022/06/17 19:26:53;;;;;;;12.68;9.60;;;26.20;99.90;;;;;;5044609;28;20510;-55
2022/06/17 19:29:22;;;;;;;5.45;2.50;;;26.00;99.90;;;;;;5064310;28;20398;-55
2022/06/17 19:31:48;;;;;;;6.57;1.88;;;25.90;99.90;;;;;;5049783;28;20668;-57
2022/06/17 19:34:20;;;;;;;5.25;2.22;;;25.70;99.90;;;;;;5045172;28;20033;-56
2022/06/17 19:36:47;;;;;;;2.15;1.35;;;25.60;99.90;;;;;;5057650;28;20028;-57
2022/06/17 19:39:14;;;;;;;71.03;47.92;;;25.40;99.90;;;;;;5057627;28;20148;-55
2022/06/17 19:41:42;;;;;;;11.55;8.80;;;25.30;99.90;;;;;;5054173;28;20033;-55
2022/06/17 19:44:12;;;;;;;12.98;2.47;;;25.10;99.90;;;;;;5056618;28;20053;-55
2022/06/17 19:46:44;;;;;;;5.78;1.95;;;25.10;99.90;;;;;;5061654;28;20033;-58
2022/06/17 19:49:15;;;;;;;6.03;1.90;;;25.00;99.90;;;;;;5053529;28;20036;-56
2022/06/17 19:51:42;;;;;;;3.72;1.85;;;24.90;99.90;;;;;;5045388;28;20182;-57
2022/06/17 19:54:10;;;;;;;17.67;12.80;;;25.00;99.90;;;;;;5045775;28;21357;-56
2022/06/17 19:56:40;;;;;;;108.53;62.05;;;25.10;99.90;;;;;;5048658;28;20051;-58
2022/06/17 19:59:06;;;;;;;16.05;9.07;;;25.30;99.90;;;;;;5050399;28;20021;-56
2022/06/17 20:01:37;;;;;;;4.05;2.03;;;25.50;99.90;;;;;;5054349;28;20090;-58
2022/06/17 20:04:05;;;;;;;4.82;1.95;;;25.20;99.90;;;;;;5057985;28;20071;-56
2022/06/17 20:06:33;;;;;;;7.45;4.40;;;25.00;99.90;;;;;;5060682;28;20052;-57
2022/06/17 20:08:58;;;;;;;14.30;8.13;;;24.70;99.90;;;;;;5048475;28;20412;-56
2022/06/17 20:11:24;;;;;;;3.40;2.15;;;24.40;99.90;;;;;;5055999;28;20124;-56
2022/06/17 20:13:50;;;;;;;3.63;1.92;;;24.20;99.90;;;;;;5049765;28;20020;-56
2022/06/17 20:16:16;;;;;;;3.03;2.15;;;24.10;99.90;;;;;;5059397;28;20087;-56
2022/06/17 20:18:43;;;;;;;10.57;4.82;;;23.90;99.90;;;;;;5049415;28;20025;-56
2022/06/17 20:21:12;;;;;;;6.25;3.03;;;23.70;99.90;;;;;;5050002;28;20036;-54
2022/06/17 20:23:40;;;;;;;4.53;1.98;;;23.60;99.90;;;;;;5053441;28;20096;-56
2022/06/17 20:26:06;;;;;;;2.85;1.90;;;23.50;99.90;;;;;;5053085;28;20029;-55
2022/06/17 20:28:32;;;;;;;19.60;10.63;;;23.40;99.90;;;;;;5056529;28;20391;-55
2022/06/17 20:30:58;;;;;;;29.35;15.35;;;23.30;99.90;;;;;;5051470;28;20031;-52
2022/06/17 20:33:24;;;;;;;28.02;17.80;;;23.20;99.90;;;;;;5051272;28;20025;-58
2022/06/17 20:35:50;;;;;;;8.38;3.25;;;23.10;99.90;;;;;;5057743;28;20033;-53
2022/06/17 20:38:20;;;;;;;4.20;2.33;;;23.10;99.90;;;;;;5054756;28;20032;-57
2022/06/17 20:40:46;;;;;;;6.32;2.10;;;22.90;99.90;;;;;;5059501;28;20021;-58
2022/06/17 20:43:12;;;;;;;6.00;2.03;;;22.90;99.90;;;;;;5051994;28;20032;-56
2022/06/17 20:51:22;;;;;;;2.25;1.92;;;22.70;99.90;;;;;;5047061;28;20166;-56
2022/06/17 20:53:48;;;;;;;5.53;1.90;;;22.70;99.90;;;;;;5048627;28;20426;-57
2022/06/17 20:56:21;;;;;;;4.95;3.00;;;22.50;99.90;;;;;;5051048;28;20033;-56
2022/06/17 20:58:47;;;;;;;2.95;1.65;;;22.50;99.90;;;;;;5046912;28;20112;-58
2022/06/17 21:01:16;;;;;;;4.95;1.88;;;22.40;99.90;;;;;;5043785;28;20524;-56
2022/06/17 21:03:44;;;;;;;6.55;2.35;;;22.40;99.90;;;;;;5043980;28;20036;-56
2022/06/17 21:06:22;;;;;;;4.63;2.55;;;22.30;99.90;;;;;;5054043;28;20029;-58
2022/06/17 21:08:50;;;;;;;6.15;3.20;;;22.10;99.90;;;;;;5052075;28;20021;-57
2022/06/17 21:11:17;;;;;;;9.68;4.25;;;22.10;99.90;;;;;;5054376;28;20103;-57
2022/06/17 21:13:44;;;;;;;7.78;4.30;;;22.00;99.90;;;;;;5058031;28;20019;-56
2022/06/17 21:16:15;;;;;;;8.98;5.07;;;22.00;99.90;;;;;;5045709;28;20773;-58
2022/06/17 21:18:42;;;;;;;8.32;3.92;;;21.90;99.90;;;;;;5055900;28;20086;-59
2022/06/17 21:21:23;;;;;;;3.95;3.30;;;21.80;99.90;;;;;;5056219;28;20368;-53
2022/06/17 21:23:52;;;;;;;5.93;2.85;;;21.70;99.90;;;;;;5054049;28;20029;-52
2022/06/17 21:26:29;;;;;;;5.43;2.60;;;21.60;99.90;;;;;;5056521;28;20032;-56
2022/06/17 21:28:57;;;;;;;5.72;3.05;;;21.60;99.90;;;;;;5057613;28;20021;-58
2022/06/17 21:31:23;;;;;;;5.30;3.03;;;21.40;99.90;;;;;;5056405;28;20048;-58
2022/06/17 21:33:49;;;;;;;8.13;2.80;;;21.40;99.90;;;;;;5061153;28;20034;-54
2022/06/17 21:36:17;;;;;;;7.95;3.72;;;21.40;99.90;;;;;;5054525;28;20127;-58
2022/06/17 21:38:49;;;;;;;4.32;3.05;;;21.30;99.90;;;;;;5053909;28;20032;-56
